Time;durP1;ratioP1;P1;durP2;ratioP2;P2;SDS_P1;SDS_P2;PMS_P1;PMS_P2;Temp;Humidity;BMP_temperature;BMP_pressure;BME280_temperature;BME280_humidity;BME280_pressure;Samples;Min_cycle;Max_cycle;Signal;HPM_P1;HPM_P2
2023/09/15 00:01:54;;;;;;;;;;;22.70;93.20;;;;;;5034049;28;20420;-47
2023/09/15 00:04:19;;;;;;;;;;;22.70;93.20;;;;;;5034309;28;19963;-51
2023/09/15 00:06:47;;;;;;;;;;;22.70;93.30;;;;;;5034139;28;20257;-50
2023/09/15 00:09:14;;;;;;;;;;;22.70;93.20;;;;;;5033968;28;20291;-48
2023/09/15 00:11:40;;;;;;;;;;;22.70;93.30;;;;;;5034110;28;19916;-51
2023/09/15 00:14:14;;;;;;;;;;;22.70;93.30;;;;;;5034086;28;19909;-50
2023/09/15 00:16:41;;;;;;;;;;;22.70;93.30;;;;;;5034365;28;19963;-50
2023/09/15 00:19:08;;;;;;;;;;;22.70;93.30;;;;;;5032912;28;19913;-48
2023/09/15 00:21:33;;;;;;;;;;;22.70;93.30;;;;;;5034023;28;19909;-48
2023/09/15 00:24:00;;;;;;;;;;;22.70;93.30;;;;;;5016218;28;19917;-51
2023/09/15 00:26:26;;;;;;;;;;;22.70;93.30;;;;;;5033904;28;19917;-49
2023/09/15 00:28:51;;;;;;;;;;;22.70;93.30;;;;;;5033688;28;19963;-48
2023/09/15 00:31:17;;;;;;;;;;;22.70;93.30;;;;;;5033588;28;19909;-49
2023/09/15 00:33:42;;;;;;;;;;;22.70;93.30;;;;;;5033580;28;19917;-50
2023/09/15 00:36:08;;;;;;;;;;;22.70;93.30;;;;;;5033528;28;19932;-52
2023/09/15 00:38:34;;;;;;;;;;;22.70;93.40;;;;;;5033821;28;19916;-46
2023/09/15 00:41:00;;;;;;;;;;;22.70;93.40;;;;;;5033601;28;19909;-51
2023/09/15 00:43:25;;;;;;;;;;;22.70;93.40;;;;;;5033531;28;19964;-51
2023/09/15 00:45:51;;;;;;;;;;;22.70;93.40;;;;;;5033407;28;19928;-47
2023/09/15 00:48:18;;;;;;;;;;;22.70;93.40;;;;;;5033801;28;19929;-46
2023/09/15 00:50:44;;;;;;;;;;;22.70;93.40;;;;;;5033715;28;19909;-51
2023/09/15 00:53:12;;;;;;;;;;;22.80;93.50;;;;;;5033403;28;20019;-48
2023/09/15 00:55:38;;;;;;;;;;;22.70;93.50;;;;;;5033701;28;19956;-49
2023/09/15 00:58:08;;;;;;;;;;;22.70;93.50;;;;;;5033639;28;19915;-51
2023/09/15 01:00:34;;;;;;;;;;;22.70;93.50;;;;;;5033667;28;19968;-49
2023/09/15 01:02:59;;;;;;;;;;;22.70;93.50;;;;;;5033780;28;20296;-49
2023/09/15 01:05:25;;;;;;;;;;;22.70;93.50;;;;;;5015840;28;20006;-50
2023/09/15 01:07:52;;;;;;;;;;;22.70;93.50;;;;;;5033281;28;19909;-50
2023/09/15 01:10:19;;;;;;;;;;;22.70;93.50;;;;;;5033590;28;19913;-48
2023/09/15 01:12:45;;;;;;;;;;;22.70;93.50;;;;;;5033482;28;19909;-52
2023/09/15 01:15:10;;;;;;;;;;;22.70;93.50;;;;;;5033584;28;19916;-51
2023/09/15 01:17:59;;;;;;;;;;;22.70;93.50;;;;;;5033197;28;19909;-47
2023/09/15 01:20:39;;;;;;;;;;;22.70;93.50;;;;;;4996045;28;19934;-50
2023/09/15 01:23:21;;;;;;;;;;;22.70;93.50;;;;;;5033444;28;19909;-51
2023/09/15 01:25:56;;;;;;;;;;;22.70;93.50;;;;;;5033057;28;19921;-52
2023/09/15 01:28:37;;;;;;;;;;;22.70;93.50;;;;;;5033154;28;19924;-48
2023/09/15 01:31:02;;;;;;;;;;;22.70;93.50;;;;;;5035714;28;19909;-49
2023/09/15 01:33:28;;;;;;;;;;;22.70;93.50;;;;;;5036995;28;19916;-49
2023/09/15 01:35:54;;;;;;;;;;;22.70;93.50;;;;;;5036938;28;19913;-52
2023/09/15 01:38:20;;;;;;;;;;;22.70;93.40;;;;;;5036830;28;19974;-48
2023/09/15 01:40:45;;;;;;;;;;;22.70;93.50;;;;;;5037159;28;19917;-53
2023/09/15 01:43:11;;;;;;;;;;;22.70;93.50;;;;;;5036730;28;20387;-51
2023/09/15 01:45:37;;;;;;;;;;;22.70;93.50;;;;;;5036390;28;19921;-49
2023/09/15 01:48:03;;;;;;;;;;;22.70;93.50;;;;;;5036699;28;19928;-50
2023/09/15 01:50:29;;;;;;;;;;;22.70;93.50;;;;;;5036699;28;20315;-48
2023/09/15 01:52:55;;;;;;;;;;;22.70;93.50;;;;;;5036604;28;20009;-47
2023/09/15 01:55:21;;;;;;;;;;;22.70;93.70;;;;;;5036537;28;19909;-51
2023/09/15 01:57:46;;;;;;;;;;;22.70;93.50;;;;;;5036272;28;19913;-47
2023/09/15 02:00:12;;;;;;;;;;;22.70;93.50;;;;;;5036108;28;19909;-50
2023/09/15 02:02:38;;;;;;;;;;;22.70;93.50;;;;;;5036117;28;19916;-51
2023/09/15 02:05:03;;;;;;;;;;;22.70;93.60;;;;;;5036102;28;19932;-49
2023/09/15 02:07:29;;;;;;;;;;;22.70;93.60;;;;;;5036415;28;19924;-46
2023/09/15 02:09:54;;;;;;;;;;;22.70;93.60;;;;;;5036320;28;19909;-48
2023/09/15 02:12:20;;;;;;;;;;;22.70;93.60;;;;;;5035983;28;20284;-51
2023/09/15 02:14:45;;;;;;;;;;;22.70;93.60;;;;;;5035906;28;19910;-51
2023/09/15 02:17:15;;;;;;;;;;;22.70;93.60;;;;;;5035844;28;19987;-48
2023/09/15 02:19:41;;;;;;;;;;;22.70;93.60;;;;;;5035864;28;20311;-49
2023/09/15 02:22:07;;;;;;;;;;;22.70;93.60;;;;;;5036028;28;20360;-49
2023/09/15 02:24:33;;;;;;;;;;;22.70;93.60;;;;;;5036078;28;19909;-51
2023/09/15 02:26:58;;;;;;;;;;;22.70;93.60;;;;;;5035702;28;19918;-48
2023/09/15 02:29:24;;;;;;;;;;;22.70;93.60;;;;;;5035714;28;20257;-50
2023/09/15 02:31:51;;;;;;;;;;;22.70;93.60;;;;;;5035866;28;19963;-47
2023/09/15 02:34:16;;;;;;;;;;;22.70;93.60;;;;;;5035813;28;19909;-52
2023/09/15 02:36:42;;;;;;;;;;;22.70;93.60;;;;;;5035819;28;19979;-52
2023/09/15 02:39:07;;;;;;;;;;;22.70;93.60;;;;;;5035586;28;19957;-47
2023/09/15 02:41:33;;;;;;;;;;;22.70;93.60;;;;;;5034621;28;19914;-47
2023/09/15 02:43:59;;;;;;;;;;;22.70;93.60;;;;;;5035737;28;19909;-50
2023/09/15 02:46:25;;;;;;;;;;;22.70;93.60;;;;;;5035606;28;20412;-48
2023/09/15 02:48:52;;;;;;;;;;;22.70;93.60;;;;;;5035653;28;20383;-50
2023/09/15 02:51:17;;;;;;;;;;;22.70;93.60;;;;;;5035542;28;20005;-50
2023/09/15 02:53:43;;;;;;;;;;;22.70;93.60;;;;;;5035505;28;19913;-48
2023/09/15 02:56:08;;;;;;;;;;;22.70;93.60;;;;;;5035223;28;20020;-53
2023/09/15 02:58:34;;;;;;;;;;;22.70;93.60;;;;;;5035777;28;20264;-48
2023/09/15 03:00:59;;;;;;;;;;;22.70;93.60;;;;;;5034089;28;19992;-48
2023/09/15 03:03:25;;;;;;;;;;;22.70;93.60;;;;;;5035017;28;19917;-50
2023/09/15 03:05:51;;;;;;;;;;;22.60;93.60;;;;;;5035232;28;19917;-49
2023/09/15 03:08:17;;;;;;;;;;;22.70;93.60;;;;;;5035165;28;19999;-48
2023/09/15 03:10:42;;;;;;;;;;;22.70;93.60;;;;;;5035111;28;20007;-50
2023/09/15 03:13:08;;;;;;;;;;;22.70;93.60;;;;;;5033777;28;20375;-49
2023/09/15 03:15:33;;;;;;;;;;;22.70;93.60;;;;;;5035133;28;19909;-53
2023/09/15 03:17:59;;;;;;;;;;;22.60;93.70;;;;;;5036752;28;19972;-47
2023/09/15 03:20:24;;;;;;;;;;;22.70;93.70;;;;;;5036324;28;19971;-51
2023/09/15 03:22:50;;;;;;;;;;;22.70;93.80;;;;;;5046004;28;19917;-53
2023/09/15 03:25:16;;;;;;;;;;;22.60;93.80;;;;;;5046907;28;19924;-50
2023/09/15 03:27:41;;;;;;;;;;;22.60;93.90;;;;;;5054581;28;19909;-52
2023/09/15 03:30:07;;;;;;;;;;;22.60;93.90;;;;;;5054531;28;19913;-50
2023/09/15 03:32:33;;;;;;;;;;;22.60;93.90;;;;;;5054586;28;20383;-52
2023/09/15 03:34:59;;;;;;;;;;;22.60;93.90;;;;;;5054667;28;19909;-51
2023/09/15 03:37:25;;;;;;;;;;;22.70;94.00;;;;;;5040751;28;20416;-48
2023/09/15 03:39:51;;;;;;;;;;;22.60;94.00;;;;;;5034763;28;19998;-48
2023/09/15 03:42:16;;;;;;;;;;;22.60;94.00;;;;;;5035226;28;19912;-49
2023/09/15 03:44:42;;;;;;;;;;;22.60;94.00;;;;;;5034383;28;19916;-47
2023/09/15 03:47:08;;;;;;;;;;;22.60;94.00;;;;;;5034371;28;20354;-52
2023/09/15 03:49:34;;;;;;;;;;;22.60;94.00;;;;;;5034521;28;19909;-49
2023/09/15 03:52:00;;;;;;;;;;;22.60;94.00;;;;;;5034521;28;20007;-50
2023/09/15 03:54:26;;;;;;;;;;;22.60;94.00;;;;;;5034508;28;19909;-51
2023/09/15 03:56:51;;;;;;;;;;;22.60;94.00;;;;;;5034097;28;20257;-49
2023/09/15 03:59:17;;;;;;;;;;;22.60;94.00;;;;;;5034905;28;20016;-53
2023/09/15 04:01:42;;;;;;;;;;;22.60;94.00;;;;;;5034046;28;19909;-49
2023/09/15 04:04:08;;;;;;;;;;;22.60;94.00;;;;;;5034562;28;19945;-50
2023/09/15 04:06:35;;;;;;;;;;;22.60;94.00;;;;;;5034167;28;19913;-47
2023/09/15 04:09:04;;;;;;;;;;;22.60;94.00;;;;;;5034191;28;20016;-48
2023/09/15 04:11:31;;;;;;;;;;;22.60;94.00;;;;;;5034229;28;19909;-50
2023/09/15 04:13:56;;;;;;;;;;;22.60;94.00;;;;;;5034041;28;20051;-49
2023/09/15 04:16:22;;;;;;;;;;;22.60;94.00;;;;;;5041132;28;19968;-50
2023/09/15 04:18:47;;;;;;;;;;;22.60;93.90;;;;;;5045143;28;19909;-50
2023/09/15 04:21:12;;;;;;;;;;;22.60;93.90;;;;;;5033704;28;19960;-49
2023/09/15 04:23:38;;;;;;;;;;;22.60;92.80;;;;;;5035239;28;20268;-52
2023/09/15 04:26:04;;;;;;;;;;;22.60;93.20;;;;;;5034120;28;19913;-52
2023/09/15 04:28:29;;;;;;;;;;;22.60;93.40;;;;;;5033958;28;19967;-51
2023/09/15 04:30:55;;;;;;;;;;;22.60;93.50;;;;;;5033683;28;19909;-49
2023/09/15 04:33:20;;;;;;;;;;;22.60;93.50;;;;;;5034541;28;19916;-52
2023/09/15 04:35:46;;;;;;;;;;;22.60;93.50;;;;;;5033846;28;19909;-50
2023/09/15 04:38:12;;;;;;;;;;;22.60;93.60;;;;;;5033601;28;19910;-51
2023/09/15 04:40:37;;;;;;;;;;;22.60;93.60;;;;;;5033555;28;19909;-47
2023/09/15 04:43:04;;;;;;;;;;;22.60;93.50;;;;;;5033541;28;19916;-53
2023/09/15 04:45:29;;;;;;;;;;;22.60;93.60;;;;;;5033098;28;19967;-48
2023/09/15 04:47:55;;;;;;;;;;;22.60;93.60;;;;;;5055615;28;19920;-50
2023/09/15 04:50:20;;;;;;;;;;;22.60;93.50;;;;;;5071527;28;19916;-48
2023/09/15 04:52:46;;;;;;;;;;;22.60;93.50;;;;;;5071557;28;20064;-48
2023/09/15 04:55:11;;;;;;;;;;;22.60;93.50;;;;;;5071465;28;19931;-50
2023/09/15 04:57:37;;;;;;;;;;;22.60;93.50;;;;;;5071398;28;19912;-51
2023/09/15 05:00:04;;;;;;;;;;;22.50;93.50;;;;;;5071460;28;20367;-50
2023/09/15 05:02:30;;;;;;;;;;;22.50;93.40;;;;;;5072851;28;19909;-49
2023/09/15 05:04:58;;;;;;;;;;;22.60;93.40;;;;;;5073329;28;20308;-49
2023/09/15 05:07:24;;;;;;;;;;;22.50;93.40;;;;;;5077377;28;19966;-52
2023/09/15 05:09:50;;;;;;;;;;;22.50;93.40;;;;;;5077337;28;19912;-52
2023/09/15 05:12:18;;;;;;;;;;;22.50;93.40;;;;;;5077028;28;20008;-51
2023/09/15 05:14:44;;;;;;;;;;;22.50;93.40;;;;;;5059372;28;19916;-48
2023/09/15 05:17:09;;;;;;;;;;;22.60;93.50;;;;;;5077235;28;20351;-53
2023/09/15 05:19:34;;;;;;;;;;;22.50;93.50;;;;;;5076977;28;20317;-51
2023/09/15 05:22:00;;;;;;;;;;;22.50;93.50;;;;;;5076952;28;19959;-47
2023/09/15 05:24:25;;;;;;;;;;;22.50;93.50;;;;;;5076631;28;20352;-52
2023/09/15 05:26:51;;;;;;;;;;;22.50;93.60;;;;;;5076287;28;19948;-53
2023/09/15 05:29:16;;;;;;;;;;;22.50;93.60;;;;;;5076511;28;19917;-51
2023/09/15 05:31:42;;;;;;;;;;;22.50;93.60;;;;;;5076598;28;19999;-48
2023/09/15 05:34:08;;;;;;;;;;;22.50;93.60;;;;;;5075421;28;20339;-49
2023/09/15 05:36:33;;;;;;;;;;;22.50;93.60;;;;;;5076526;28;19954;-50
2023/09/15 05:38:59;;;;;;;;;;;22.50;93.60;;;;;;5076661;28;20326;-47
2023/09/15 05:41:24;;;;;;;;;;;22.50;93.50;;;;;;5076711;28;19909;-50
2023/09/15 05:43:50;;;;;;;;;;;22.50;93.70;;;;;;5076530;28;19912;-53
2023/09/15 05:46:15;;;;;;;;;;;22.50;93.40;;;;;;5076131;28;20007;-53
2023/09/15 05:48:41;;;;;;;;;;;22.50;93.50;;;;;;5076613;28;19924;-49
2023/09/15 05:51:07;;;;;;;;;;;22.50;93.50;;;;;;5076529;28;19913;-51
2023/09/15 05:53:32;;;;;;;;;;;22.50;93.60;;;;;;5076371;28;19944;-49
2023/09/15 05:55:58;;;;;;;;;;;22.50;93.30;;;;;;5076096;28;19909;-51
2023/09/15 05:58:24;;;;;;;;;;;22.50;93.20;;;;;;5076328;28;19915;-51
2023/09/15 06:00:55;;;;;;;;;;;22.50;93.30;;;;;;5076266;28;20309;-49
2023/09/15 06:03:24;;;;;;;;;;;22.50;93.40;;;;;;5076305;28;20296;-51
2023/09/15 06:05:49;;;;;;;;;;;22.50;93.40;;;;;;5075993;28;19973;-53
2023/09/15 06:08:16;;;;;;;;;;;22.50;93.30;;;;;;5076143;28;20011;-52
2023/09/15 06:10:42;;;;;;;;;;;22.50;93.30;;;;;;5076083;28;19915;-53
2023/09/15 06:13:07;;;;;;;;;;;22.50;93.40;;;;;;5075839;28;19909;-52
2023/09/15 06:15:34;;;;;;;;;;;22.50;93.50;;;;;;5076137;28;19991;-49
2023/09/15 06:18:01;;;;;;;;;;;22.50;93.50;;;;;;5074916;28;19908;-48
2023/09/15 06:20:30;;;;;;;;;;;22.50;93.40;;;;;;5074662;28;19916;-52
2023/09/15 06:22:56;;;;;;;;;;;22.50;93.40;;;;;;5075946;28;19908;-51
2023/09/15 06:25:21;;;;;;;;;;;22.40;93.40;;;;;;5075826;28;20408;-49
2023/09/15 06:27:47;;;;;;;;;;;22.40;93.50;;;;;;5057848;28;19966;-50
2023/09/15 06:30:12;;;;;;;;;;;22.40;93.50;;;;;;5075604;28;19960;-51
2023/09/15 06:32:38;;;;;;;;;;;22.40;93.50;;;;;;5075405;28;19962;-52
2023/09/15 06:35:04;;;;;;;;;;;22.40;93.60;;;;;;5075339;28;19916;-50
2023/09/15 06:37:29;;;;;;;;;;;22.40;93.50;;;;;;5075863;28;20339;-51
2023/09/15 06:39:55;;;;;;;;;;;22.40;93.50;;;;;;5057619;28;19908;-51
2023/09/15 06:42:20;;;;;;;;;;;22.40;93.60;;;;;;5075542;28;19915;-52
2023/09/15 06:44:46;;;;;;;;;;;22.40;93.60;;;;;;5075205;28;19958;-49
2023/09/15 06:47:11;;;;;;;;;;;22.40;93.60;;;;;;5074890;28;19921;-50
2023/09/15 06:49:36;;;;;;;;;;;22.40;93.50;;;;;;5075418;28;19997;-49
2023/09/15 06:52:02;;;;;;;;;;;22.40;93.60;;;;;;5075263;28;20275;-51
2023/09/15 06:54:28;;;;;;;;;;;22.40;93.70;;;;;;5048110;28;19966;-52
2023/09/15 06:56:53;;;;;;;;;;;22.40;93.70;;;;;;5066366;28;19916;-51
2023/09/15 06:59:19;;;;;;;;;;;22.40;93.80;;;;;;5065790;28;19979;-50
2023/09/15 07:01:44;;;;;;;;;;;22.40;93.80;;;;;;5054879;28;19908;-52
2023/09/15 07:04:12;;;;;;;;;;;22.40;93.80;;;;;;5054685;28;19909;-50
2023/09/15 07:06:38;;;;;;;;;;;22.40;93.80;;;;;;5054049;28;19912;-48
2023/09/15 07:09:04;;;;;;;;;;;22.40;93.80;;;;;;5056269;28;19974;-50
2023/09/15 07:11:29;;;;;;;;;;;22.30;93.80;;;;;;5074160;28;19912;-51
2023/09/15 07:13:55;;;;;;;;;;;22.30;93.90;;;;;;5074595;28;19916;-49
2023/09/15 07:16:20;;;;;;;;;;;22.30;93.90;;;;;;5074354;28;19908;-50
2023/09/15 07:18:46;;;;;;;;;;;22.30;93.90;;;;;;5062027;28;19923;-53
2023/09/15 07:21:11;;;;;;;;;;;22.30;93.80;;;;;;5054779;28;19909;-48
2023/09/15 07:23:37;;;;;;;;;;;22.30;93.90;;;;;;5037801;28;19917;-50
2023/09/15 07:26:02;;;;;;;;;;;22.30;93.90;;;;;;5033740;28;19917;-47
2023/09/15 07:28:28;;;;;;;;;;;22.30;94.00;;;;;;5032321;28;20070;-50
2023/09/15 07:31:01;;;;;;;;;;;22.30;93.90;;;;;;5034340;28;19916;-53
2023/09/15 07:33:26;;;;;;;;;;;22.30;93.90;;;;;;5024834;28;20056;-53
2023/09/15 07:35:57;;;;;;;;;;;22.30;94.00;;;;;;5034792;28;20364;-53
2023/09/15 07:38:23;;;;;;;;;;;22.30;94.00;;;;;;5034764;28;19919;-49
2023/09/15 07:40:49;;;;;;;;;;;22.30;94.10;;;;;;5054164;28;19909;-55
2023/09/15 07:43:14;;;;;;;;;;;22.30;94.10;;;;;;5045004;28;19920;-51
2023/09/15 07:45:40;;;;;;;;;;;22.30;94.30;;;;;;5034425;28;19959;-53
2023/09/15 07:48:05;;;;;;;;;;;22.30;94.30;;;;;;5021383;28;19928;-51
2023/09/15 07:50:33;;;;;;;;;;;22.20;94.20;;;;;;5043253;28;19913;-54
2023/09/15 07:52:59;;;;;;;;;;;22.20;94.10;;;;;;5034117;28;19909;-52
2023/09/15 07:55:24;;;;;;;;;;;22.30;94.10;;;;;;5037365;28;19909;-51
2023/09/15 07:57:50;;;;;;;;;;;22.20;93.60;;;;;;5045265;28;19917;-52
2023/09/15 08:00:15;;;;;;;;;;;22.20;92.60;;;;;;5046989;28;19951;-52
2023/09/15 08:02:41;;;;;;;;;;;22.20;92.30;;;;;;5020898;28;19909;-52
2023/09/15 08:05:06;;;;;;;;;;;22.20;92.30;;;;;;5035418;28;19986;-50
2023/09/15 08:07:32;;;;;;;;;;;22.20;92.80;;;;;;5033467;28;20368;-52
2023/09/15 08:09:58;;;;;;;;;;;22.20;93.10;;;;;;5034263;28;20003;-53
2023/09/15 08:12:24;;;;;;;;;;;22.20;93.20;;;;;;5034027;28;19906;-53
2023/09/15 08:14:49;;;;;;;;;;;22.20;93.20;;;;;;5032810;28;19919;-49
2023/09/15 08:17:15;;;;;;;;;;;22.20;93.30;;;;;;5033828;28;19905;-47
2023/09/15 08:19:41;;;;;;;;;;;22.20;93.40;;;;;;5033370;28;20268;-51
2023/09/15 08:22:06;;;;;;;;;;;22.20;93.50;;;;;;5034424;28;19913;-52
2023/09/15 08:24:32;;;;;;;;;;;22.20;93.60;;;;;;5033921;28;19928;-53
2023/09/15 08:26:57;;;;;;;;;;;22.20;93.70;;;;;;5033394;28;19924;-50
2023/09/15 08:29:23;;;;;;;;;;;22.30;93.80;;;;;;5033607;28;20359;-53
2023/09/15 08:31:48;;;;;;;;;;;22.20;93.80;;;;;;5036488;28;20340;-52
2023/09/15 08:34:14;;;;;;;;;;;22.20;93.70;;;;;;5033438;28;19909;-53
2023/09/15 08:36:39;;;;;;;;;;;22.20;93.80;;;;;;5033879;28;19931;-52
2023/09/15 08:39:05;;;;;;;;;;;22.20;94.10;;;;;;5035113;28;19905;-50
2023/09/15 08:41:42;;;;;;;;;;;22.20;93.90;;;;;;5043619;28;19909;-51
2023/09/15 08:44:09;;;;;;;;;;;22.30;93.90;;;;;;5041018;28;20348;-53
2023/09/15 08:46:34;;;;;;;;;;;22.20;93.90;;;;;;5041490;28;19962;-55
2023/09/15 08:49:01;;;;;;;;;;;22.20;94.00;;;;;;5057250;28;19904;-55
2023/09/15 08:51:27;;;;;;;;;;;22.30;94.10;;;;;;5057884;28;19904;-52
2023/09/15 08:53:56;;;;;;;;;;;22.30;94.00;;;;;;5049190;28;19909;-52
2023/09/15 08:56:22;;;;;;;;;;;22.30;94.00;;;;;;5036137;28;19905;-56
2023/09/15 08:58:47;;;;;;;;;;;22.30;93.80;;;;;;5036283;28;19913;-51
2023/09/15 09:01:14;;;;;;;;;;;22.30;93.90;;;;;;5037973;28;19975;-54
2023/09/15 09:03:40;;;;;;;;;;;22.30;93.80;;;;;;5049582;28;20303;-56
2023/09/15 09:06:09;;;;;;;;;;;22.30;94.00;;;;;;5043855;28;19929;-52
2023/09/15 09:08:37;;;;;;;;;;;22.30;94.00;;;;;;5038093;28;19916;-54
2023/09/15 09:11:03;;;;;;;;;;;22.30;94.00;;;;;;5037168;28;19905;-55
2023/09/15 09:13:28;;;;;;;;;;;22.30;94.00;;;;;;5036501;28;19917;-56
2023/09/15 09:15:54;;;;;;;;;;;22.30;93.90;;;;;;5037114;28;19909;-58
2023/09/15 09:18:20;;;;;;;;;;;22.30;94.00;;;;;;5036777;28;20046;-49
2023/09/15 09:20:50;;;;;;;;;;;22.30;94.00;;;;;;5041713;28;19936;-54
2023/09/15 09:23:19;;;;;;;;;;;22.30;93.90;;;;;;5037080;28;19913;-53
2023/09/15 09:25:45;;;;;;;;;;;22.30;93.80;;;;;;5035892;28;20253;-53
2023/09/15 09:28:10;;;;;;;;;;;22.30;93.90;;;;;;5037811;28;19923;-53
2023/09/15 09:30:36;;;;;;;;;;;22.30;94.00;;;;;;5036967;28;19909;-54
2023/09/15 09:33:03;;;;;;;;;;;22.30;94.00;;;;;;5040849;28;19920;-54
2023/09/15 09:35:28;;;;;;;;;;;22.30;93.90;;;;;;5046223;28;20257;-53
2023/09/15 09:37:55;;;;;;;;;;;22.30;93.70;;;;;;5042509;28;19919;-52
2023/09/15 09:40:21;;;;;;;;;;;22.30;93.40;;;;;;5055760;28;19909;-55
2023/09/15 09:42:47;;;;;;;;;;;22.30;93.40;;;;;;5050013;28;19999;-53
2023/09/15 09:45:14;;;;;;;;;;;22.30;93.50;;;;;;5039182;28;19917;-52
2023/09/15 09:47:40;;;;;;;;;;;22.30;93.60;;;;;;5036615;28;19921;-53
2023/09/15 09:50:06;;;;;;;;;;;22.30;93.60;;;;;;5035818;28;19932;-53
2023/09/15 09:52:32;;;;;;;;;;;22.30;93.50;;;;;;5038623;28;20379;-50
2023/09/15 09:55:00;;;;;;;;;;;22.30;93.50;;;;;;5049945;28;20007;-51
2023/09/15 09:57:26;;;;;;;;;;;22.30;93.50;;;;;;5052683;28;19913;-54
2023/09/15 09:59:52;;;;;;;;;;;22.30;93.60;;;;;;5055282;28;20240;-51
2023/09/15 10:02:17;;;;;;;;;;;22.30;93.10;;;;;;5052697;28;19917;-58
2023/09/15 10:04:43;;;;;;;;;;;22.30;92.90;;;;;;5056108;28;19909;-57
2023/09/15 10:07:08;;;;;;;;;;;22.30;92.80;;;;;;5045584;28;19953;-60
2023/09/15 10:09:34;;;;;;;;;;;22.30;92.90;;;;;;5036069;28;19909;-60
2023/09/15 10:12:00;;;;;;;;;;;22.30;93.10;;;;;;5035378;28;19913;-53
2023/09/15 10:14:26;;;;;;;;;;;22.30;93.20;;;;;;5017473;28;19967;-59
2023/09/15 10:16:52;;;;;;;;;;;22.30;93.20;;;;;;5035142;28;19917;-56
2023/09/15 10:19:18;;;;;;;;;;;22.30;93.30;;;;;;5036629;28;19913;-60
2023/09/15 10:21:44;;;;;;;;;;;22.30;93.40;;;;;;5025821;28;20434;-58
2023/09/15 10:24:10;;;;;;;;;;;22.30;93.50;;;;;;5048267;28;19909;-51
2023/09/15 10:26:41;;;;;;;;;;;22.30;93.50;;;;;;5032837;28;20408;-52
2023/09/15 10:29:07;;;;;;;;;;;22.30;93.40;;;;;;5035797;28;19913;-55
2023/09/15 10:31:33;;;;;;;;;;;22.30;93.30;;;;;;5035172;28;20337;-52
2023/09/15 10:34:04;;;;;;;;;;;22.30;93.20;;;;;;5017680;28;19962;-53
2023/09/15 10:36:30;;;;;;;;;;;22.30;93.20;;;;;;5035465;28;19909;-55
2023/09/15 10:38:57;;;;;;;;;;;22.30;93.40;;;;;;5034179;28;19909;-54
2023/09/15 10:41:23;;;;;;;;;;;22.30;93.30;;;;;;5035524;28;20058;-53
2023/09/15 10:43:52;;;;;;;;;;;22.30;93.40;;;;;;5035539;28;19909;-51
2023/09/15 10:46:17;;;;;;;;;;;22.30;93.40;;;;;;5035174;28;19921;-53
2023/09/15 10:48:46;;;;;;;;;;;22.30;93.30;;;;;;5035548;28;19921;-54
2023/09/15 10:51:12;;;;;;;;;;;22.30;93.30;;;;;;5035883;28;19909;-52
2023/09/15 10:53:43;;;;;;;;;;;22.30;93.40;;;;;;5035373;28;20303;-51
2023/09/15 10:56:09;;;;;;;;;;;22.30;93.40;;;;;;5035296;28;20272;-53
2023/09/15 10:58:35;;;;;;;;;;;22.30;93.40;;;;;;5035392;28;19909;-54
2023/09/15 11:01:00;;;;;;;;;;;22.30;93.30;;;;;;5034734;28;19952;-54
2023/09/15 11:03:27;;;;;;;;;;;22.30;93.30;;;;;;5034405;28;20444;-50
2023/09/15 11:05:52;;;;;;;;;;;22.30;93.50;;;;;;5034989;28;19917;-55
2023/09/15 11:08:18;;;;;;;;;;;22.30;93.20;;;;;;5035063;28;19910;-52
2023/09/15 11:10:43;;;;;;;;;;;22.30;93.50;;;;;;5034877;28;19909;-52
2023/09/15 11:13:09;;;;;;;;;;;22.30;93.40;;;;;;5034642;28;19909;-53
2023/09/15 11:15:35;;;;;;;;;;;22.30;93.30;;;;;;5034883;28;19909;-53
2023/09/15 11:18:01;;;;;;;;;;;22.30;93.20;;;;;;5034394;28;19955;-53
2023/09/15 11:20:27;;;;;;;;;;;22.30;93.30;;;;;;5034534;28;20388;-50
2023/09/15 11:22:56;;;;;;;;;;;22.30;93.30;;;;;;5034989;28;19909;-54
2023/09/15 11:25:21;;;;;;;;;;;22.20;93.30;;;;;;5034879;28;19909;-54
2023/09/15 11:27:48;;;;;;;;;;;22.30;93.30;;;;;;5034650;28;19913;-50
2023/09/15 11:30:13;;;;;;;;;;;22.30;93.40;;;;;;5034626;28;19913;-53
2023/09/15 11:32:39;;;;;;;;;;;22.30;93.50;;;;;;5034807;28;20015;-49
2023/09/15 11:35:05;;;;;;;;;;;22.20;93.30;;;;;;5034338;28;19909;-51
2023/09/15 11:37:31;;;;;;;;;;;22.30;93.30;;;;;;5034444;28;19909;-50
2023/09/15 11:39:56;;;;;;;;;;;22.20;93.30;;;;;;5034269;28;20383;-52
2023/09/15 11:42:22;;;;;;;;;;;22.20;93.20;;;;;;5034450;28;19910;-53
2023/09/15 11:44:47;;;;;;;;;;;22.30;93.30;;;;;;5033906;28;20352;-49
2023/09/15 11:47:13;;;;;;;;;;;22.20;93.20;;;;;;5033984;28;19927;-50
2023/09/15 11:49:39;;;;;;;;;;;22.30;93.20;;;;;;5034200;28;19916;-54
2023/09/15 11:52:05;;;;;;;;;;;22.30;93.20;;;;;;5034333;28;20376;-54
2023/09/15 11:54:31;;;;;;;;;;;22.30;93.30;;;;;;5034268;28;19909;-51
2023/09/15 11:56:57;;;;;;;;;;;22.20;93.20;;;;;;5034214;28;19958;-51
2023/09/15 11:59:23;;;;;;;;;;;22.30;93.10;;;;;;5034140;28;19910;-53
2023/09/15 12:01:52;;;;;;;;;;;22.20;93.20;;;;;;5034133;28;19916;-53
2023/09/15 12:04:17;;;;;;;;;;;22.20;93.20;;;;;;5034199;28;19920;-52
2023/09/15 12:06:45;;;;;;;;;;;22.20;93.20;;;;;;5033774;28;19913;-52
2023/09/15 12:09:12;;;;;;;;;;;22.30;93.20;;;;;;5033473;28;19919;-52
2023/09/15 12:11:41;;;;;;;;;;;22.20;93.40;;;;;;5033807;28;20008;-53
2023/09/15 12:14:07;;;;;;;;;;;22.20;93.10;;;;;;5033980;28;19959;-54
2023/09/15 12:16:33;;;;;;;;;;;22.20;93.30;;;;;;5033704;28;20322;-54
2023/09/15 12:18:59;;;;;;;;;;;22.20;93.30;;;;;;5033936;28;19952;-53
2023/09/15 12:21:24;;;;;;;;;;;22.20;93.20;;;;;;5033905;28;19909;-53
2023/09/15 12:23:51;;;;;;;;;;;22.20;93.20;;;;;;5033687;28;19917;-54
2023/09/15 12:26:17;;;;;;;;;;;22.30;93.20;;;;;;5033367;28;19949;-55
2023/09/15 12:28:43;;;;;;;;;;;22.20;93.20;;;;;;5033824;28;19920;-52
2023/09/15 12:31:14;;;;;;;;;;;22.20;93.20;;;;;;5034083;28;19916;-52
2023/09/15 12:33:40;;;;;;;;;;;22.20;93.30;;;;;;5033506;28;19967;-54
2023/09/15 12:36:05;;;;;;;;;;;22.20;93.30;;;;;;5033496;28;19909;-53
2023/09/15 12:38:31;;;;;;;;;;;22.20;93.30;;;;;;5033778;28;19916;-53
2023/09/15 12:40:56;;;;;;;;;;;22.20;93.30;;;;;;5034110;28;19909;-51
2023/09/15 12:43:22;;;;;;;;;;;22.20;93.20;;;;;;5033511;28;20044;-51
2023/09/15 12:45:47;;;;;;;;;;;22.20;93.30;;;;;;5015650;28;19913;-53
2023/09/15 12:48:13;;;;;;;;;;;22.20;93.20;;;;;;5033160;28;19932;-52
2023/09/15 12:50:38;;;;;;;;;;;22.20;93.30;;;;;;5033306;28;20340;-51
2023/09/15 12:53:04;;;;;;;;;;;22.20;93.40;;;;;;5033520;28;19917;-50
2023/09/15 12:55:30;;;;;;;;;;;22.20;93.40;;;;;;5033528;28;19909;-52
2023/09/15 12:57:55;;;;;;;;;;;22.20;93.40;;;;;;5033238;28;19916;-54
2023/09/15 13:00:21;;;;;;;;;;;22.20;93.30;;;;;;5033294;28;20003;-56
2023/09/15 13:02:47;;;;;;;;;;;22.20;93.30;;;;;;5033479;28;19913;-53
2023/09/15 13:05:12;;;;;;;;;;;22.20;93.30;;;;;;5032949;28;19941;-51
2023/09/15 13:07:42;;;;;;;;;;;22.20;93.20;;;;;;5033313;28;19913;-54
2023/09/15 13:10:11;;;;;;;;;;;22.20;93.30;;;;;;5033170;28;19951;-54
2023/09/15 13:12:37;;;;;;;;;;;22.20;93.40;;;;;;5033210;28;20005;-56
2023/09/15 13:15:03;;;;;;;;;;;22.20;93.30;;;;;;5033272;28;20340;-53
2023/09/15 13:17:29;;;;;;;;;;;22.20;93.30;;;;;;5033037;28;19928;-51
2023/09/15 13:19:55;;;;;;;;;;;22.20;93.30;;;;;;5033099;28;19909;-51
2023/09/15 13:22:22;;;;;;;;;;;22.20;93.30;;;;;;5021888;28;20325;-54
2023/09/15 13:24:48;;;;;;;;;;;22.20;93.30;;;;;;5039926;28;19920;-53
2023/09/15 13:27:14;;;;;;;;;;;22.20;93.30;;;;;;5050641;28;19931;-53
2023/09/15 13:29:39;;;;;;;;;;;22.20;93.50;;;;;;5042702;28;19920;-52
2023/09/15 13:32:05;;;;;;;;;;;22.20;93.30;;;;;;5044364;28;20323;-50
2023/09/15 13:34:32;;;;;;;;;;;22.20;93.30;;;;;;5038630;28;19919;-50
2023/09/15 13:36:57;;;;;;;;;;;22.20;93.00;;;;;;5039889;28;20344;-49
2023/09/15 13:39:23;;;;;;;;;;;22.20;92.80;;;;;;5036352;28;19959;-53
2023/09/15 13:41:49;;;;;;;;;;;22.20;92.80;;;;;;5037945;28;20012;-53
2023/09/15 13:44:14;;;;;;;;;;;22.20;92.90;;;;;;5029532;28;19914;-54
2023/09/15 13:46:40;;;;;;;;;;;22.20;93.00;;;;;;5038352;28;20318;-51
2023/09/15 13:49:06;;;;;;;;;;;22.20;93.10;;;;;;5036563;28;19910;-51
2023/09/15 13:51:32;;;;;;;;;;;22.20;93.10;;;;;;5036347;28;19910;-53
2023/09/15 13:53:57;;;;;;;;;;;22.20;93.10;;;;;;5039974;28;19913;-52
2023/09/15 13:56:23;;;;;;;;;;;22.20;93.10;;;;;;5056010;28;20352;-52
2023/09/15 13:58:48;;;;;;;;;;;22.20;93.10;;;;;;5055884;28;19917;-51
2023/09/15 14:01:14;;;;;;;;;;;22.20;93.10;;;;;;5056144;28;19955;-52
2023/09/15 14:03:44;;;;;;;;;;;22.20;93.20;;;;;;5056212;28;19909;-54
2023/09/15 14:06:12;;;;;;;;;;;22.20;93.20;;;;;;5055627;28;19975;-52
2023/09/15 14:08:37;;;;;;;;;;;22.20;93.30;;;;;;5055943;28;19924;-49
2023/09/15 14:11:04;;;;;;;;;;;22.20;93.30;;;;;;5055225;28;19909;-52